DRRT

Tahoua Airport

Tahoua, Niger
METAR DRRT 201200Z 12014KT 8000 NSC 39/M04 Q1011
Observed Flight Rules
Oct-20 @ 12:00 UTC (52 minutes ago) Marginal Visual Flight Rules
Wind Visibility Clouds
120° at 14 knots 7,998 meters
  • Clear skies
Temperatures Readings
Current 39°C / 102°F
Dewpoint -4°C / 25°F
Humidity 6%
Altimeter 29.85" Hg
Pressure 1011 hPa
Elevation 391
METAR DRRT 201200Z 12014KT 8000 NSC 39/M04 Q1011
Observed Flight Rules
Oct-20 @ 12:00 UTC
(52 minutes ago)
MVFR
Wind Visibility
120° at 14 knots 7,998 meters
Clouds
  • Clear skies
Temperature Dewpoint
39°C / 102°F -4°C / 25°F
Humidity Altimeter Pressure
6% 29.85" Hg 1011 hPa